Aeroporto :
LOGIN :

Iscrizione | Disclaimer

   EN    FR    IT 

 










Sommario :    VFR   VFR Marginale   IFR   IFR Intensivo   IFR Molto Intensivo
Visibilità : 
Base nubi : 
>= 8 km
>= 3000ft
5 / 8 km
1000 / 3000 ft
1500m / 5 km
500 / 1000 ft
800 / 1500m
200 / 500 ft
< 800m
< 200 ft
Simboli :   Temporali  Nebbia  Neve Forte  Precipitazioni Forti  Vento > 20 kt
SIGMETs :   Varie  Temporali  Ghiacco  Turbolenza  Onda orograficha  Ceneri Vulcaniche






- Altitudine del aeroporto : 65 ft
- Codice IATA : ADA


LTAF - Adana

ULTIMO METAR :
  • 290720Z 19014KT 9999 SCT035 22/12 Q1013 NOSIG RMK RWY23 23016KT

METARs OBSOLETI :
  • 290650Z 20016KT 170V230 9999 SCT035 22/11 Q1012 NOSIG RMK RWY23 22014KT
  • 290620Z 19012KT 9999 SCT035 BKN100 21/14 Q1012 NOSIG RMK RWY23 21011KT
  • 290550Z 20010KT 170V240 9999 SCT035 22/13 Q1012 NOSIG RMK RWY23 20010KT 170V230
  • 290520Z 23009KT 9999 SCT035 21/15 Q1012 NOSIG RMK RWY23 20010KT 160V250
  • 290450Z 19005KT 150V220 9999 SCT035 20/14 Q1012 NOSIG RMK RWY23 21005KT 170V250

TAF TAF LTAF
Valido dal 29 a 06 ore il 30 a 06 ore UTC


290440Z 2906/3006 21012KT 9999 SCT035
PROB40
TEMPO 2911/2914 -TSRA FEW025CB BKN030
BECMG 2916/2919 VRB02KT



MetMap, La meteo Aeronautica in un colpo d'occhio ! - Copyright ORBIFLY Dicembre 2007 - Disclaimer

ORBIFLY MET'MAP TEAM :

Programmazione e sviluppo : Alexandra Zaïnal
Concezione : Baudouin d'Aumeries
Aiuto per la programmazione : Marc-Olivier Méhu
Supporto tecnico e logistico : Manuel Goepfert
Aiuto per la traduzione : Arnaldo La Scala

Contatto : metmap@orbifly.com




FONTI E CREDITI :

   NOAA